createdAt,value
2018-09-06T00:00:02.396Z,54.71
2018-09-06T00:02:26.255Z,54.55
2018-09-06T00:04:50.252Z,54.97
2018-09-06T00:07:14.107Z,54.69
2018-09-06T00:09:38.157Z,55.04
2018-09-06T00:12:02.068Z,54.83
2018-09-06T00:14:25.954Z,55.33
2018-09-06T00:16:49.985Z,55.13
2018-09-06T00:19:13.849Z,55.08
2018-09-06T00:21:37.756Z,55.67
2018-09-06T00:24:01.653Z,55.21
2018-09-06T00:26:25.526Z,55.09
2018-09-06T00:28:49.401Z,56.10
2018-09-06T00:31:13.306Z,55.89
2018-09-06T00:33:37.201Z,55.76
2018-09-06T00:36:01.079Z,55.55
2018-09-06T00:38:24.989Z,55.55
2018-09-06T00:40:48.903Z,56.00
2018-09-06T00:43:12.802Z,56.00
2018-09-06T00:45:36.694Z,56.92
2018-09-06T00:48:00.571Z,56.99
2018-09-06T00:50:24.452Z,55.89
2018-09-06T00:52:49.568Z,57.18
2018-09-06T00:55:13.426Z,57.30
2018-09-06T00:57:37.333Z,56.19
2018-09-06T01:00:01.192Z,56.49
2018-09-06T01:02:25.099Z,56.79
2018-09-06T01:04:48.970Z,57.57
2018-09-06T01:09:42.077Z,57.65
2018-09-06T01:12:05.962Z,57.87
2018-09-06T01:14:30.134Z,57.72
2018-09-06T01:16:54.049Z,57.52
2018-09-06T01:19:17.960Z,57.57
2018-09-06T01:21:41.804Z,57.65
2018-09-06T01:24:11.965Z,58.20
2018-09-06T01:26:35.867Z,58.94
2018-09-06T01:29:00.980Z,58.27
2018-09-06T01:31:26.352Z,58.46
2018-09-06T01:33:53.468Z,58.39
2018-09-06T01:36:22.743Z,59.14
2018-09-06T01:38:46.604Z,59.10
2018-09-06T01:41:10.470Z,58.98
2018-09-06T01:43:34.338Z,58.46
2018-09-06T01:45:58.220Z,59.21
2018-09-06T01:48:22.075Z,58.93
2018-09-06T01:50:45.959Z,59.26
2018-09-06T01:53:09.965Z,59.23
2018-09-06T01:55:33.799Z,59.22
2018-09-06T01:57:57.644Z,59.76
2018-09-06T02:00:21.505Z,59.32
2018-09-06T02:02:45.353Z,59.64
2018-09-06T02:05:09.204Z,59.44
2018-09-06T02:07:33.041Z,59.64
2018-09-06T02:09:56.902Z,60.14
2018-09-06T02:12:20.759Z,60.20
2018-09-06T02:14:44.637Z,59.61
2018-09-06T02:17:08.492Z,59.62
2018-09-06T02:19:32.338Z,60.64
2018-09-06T02:21:56.225Z,60.21
2018-09-06T02:24:20.129Z,60.63
2018-09-06T02:26:43.975Z,60.26
2018-09-06T02:29:07.822Z,60.68
2018-09-06T02:31:31.722Z,60.98
2018-09-06T02:33:55.590Z,60.70
2018-09-06T02:36:19.465Z,60.83
2018-09-06T02:38:43.311Z,61.39
2018-09-06T02:41:07.197Z,61.52
2018-09-06T02:43:31.114Z,60.65
2018-09-06T02:45:54.999Z,61.67
2018-09-06T02:48:18.843Z,61.30
2018-09-06T02:50:48.140Z,60.92
2018-09-06T02:53:12.116Z,61.33
2018-09-06T02:55:35.978Z,61.12
2018-09-06T02:58:00.348Z,62.03
2018-09-06T03:00:30.697Z,62.04
2018-09-06T03:02:54.634Z,62.21
2018-09-06T03:05:18.507Z,62.20
2018-09-06T03:07:42.431Z,62.09
2018-09-06T03:10:06.314Z,61.74
2018-09-06T03:12:30.188Z,62.09
2018-09-06T03:14:54.063Z,62.48
2018-09-06T03:17:18.284Z,63.03
2018-09-06T03:19:42.158Z,63.01
2018-09-06T03:22:06.590Z,62.45
2018-09-06T03:24:30.456Z,62.53
2018-09-06T03:29:24.725Z,63.04
2018-09-06T03:31:48.605Z,63.13
2018-09-06T03:34:12.450Z,63.60
2018-09-06T03:36:36.333Z,62.99
2018-09-06T03:39:00.210Z,62.92
2018-09-06T03:41:24.142Z,63.72
2018-09-06T03:43:48.057Z,63.33
2018-09-06T03:46:11.995Z,63.60
2018-09-06T03:48:35.840Z,63.72
2018-09-06T03:50:59.751Z,63.61
2018-09-06T03:53:23.726Z,64.01
2018-09-06T03:55:47.632Z,63.55
2018-09-06T03:58:11.503Z,63.47
2018-09-06T04:00:41.634Z,63.42
2018-09-06T04:03:05.491Z,63.20
2018-09-06T04:05:29.364Z,63.46
2018-09-06T04:07:53.271Z,63.79
2018-09-06T04:10:17.128Z,63.71
2018-09-06T04:12:41.333Z,62.59
2018-09-06T04:15:05.226Z,63.83
2018-09-06T04:17:29.085Z,64.42
2018-09-06T04:19:52.961Z,64.06
2018-09-06T04:22:16.856Z,64.03
2018-09-06T04:24:40.808Z,63.16
2018-09-06T04:27:04.696Z,63.32
2018-09-06T04:29:28.523Z,64.32
2018-09-06T04:31:52.423Z,63.78
2018-09-06T04:34:16.458Z,63.58
2018-09-06T04:36:40.410Z,63.72
2018-09-06T04:39:05.712Z,63.62
2018-09-06T04:41:29.598Z,64.36
2018-09-06T04:43:53.625Z,64.43
2018-09-06T04:46:17.426Z,65.08
2018-09-06T04:48:41.390Z,64.40
2018-09-06T04:51:05.255Z,64.32
2018-09-06T04:53:29.125Z,64.59
2018-09-06T04:55:53.004Z,63.94
2018-09-06T04:58:16.896Z,64.74
2018-09-06T05:00:40.753Z,64.53
2018-09-06T05:03:04.649Z,64.43
2018-09-06T05:05:28.563Z,64.70
2018-09-06T05:07:52.511Z,65.17
2018-09-06T05:10:16.365Z,65.53
2018-09-06T05:12:40.230Z,64.75
2018-09-06T05:15:04.150Z,64.99
2018-09-06T05:17:28.074Z,64.82
2018-09-06T05:19:51.958Z,64.93
2018-09-06T05:22:15.811Z,64.77
2018-09-06T05:24:39.712Z,65.71
2018-09-06T05:27:03.581Z,64.73
2018-09-06T05:29:27.511Z,64.96
2018-09-06T05:31:51.380Z,65.56
2018-09-06T05:34:15.270Z,65.36
2018-09-06T05:36:39.209Z,64.56
2018-09-06T05:39:03.084Z,65.60
2018-09-06T05:41:26.951Z,65.76
2018-09-06T05:43:50.869Z,66.18
2018-09-06T05:46:14.775Z,66.05
2018-09-06T05:48:38.983Z,66.35
2018-09-06T05:51:02.861Z,66.20
2018-09-06T05:53:26.791Z,65.75
2018-09-06T05:55:50.666Z,66.63
2018-09-06T05:58:14.524Z,66.38
2018-09-06T06:00:47.041Z,65.77
2018-09-06T06:03:10.964Z,66.29
2018-09-06T06:05:34.821Z,65.70
2018-09-06T06:08:10.067Z,66.30
2018-09-06T06:10:33.940Z,65.44
2018-09-06T06:12:57.819Z,65.78
2018-09-06T06:15:21.691Z,65.88
2018-09-06T06:17:45.562Z,65.93
2018-09-06T06:20:09.491Z,65.79
2018-09-06T06:22:33.372Z,66.07
2018-09-06T06:24:57.415Z,65.14
2018-09-06T06:27:21.308Z,65.33
2018-09-06T06:29:45.210Z,65.54
2018-09-06T06:32:09.152Z,65.69
2018-09-06T06:34:33.036Z,65.88
2018-09-06T06:36:56.897Z,65.51
2018-09-06T06:39:20.772Z,65.24
2018-09-06T06:41:44.747Z,65.76
2018-09-06T06:44:08.671Z,65.38
2018-09-06T06:46:32.516Z,65.71
2018-09-06T06:48:56.535Z,64.71
2018-09-06T06:51:20.443Z,64.88
2018-09-06T06:53:44.327Z,64.48
2018-09-06T06:56:08.303Z,65.26
2018-09-06T06:58:32.346Z,64.59
2018-09-06T07:00:56.277Z,64.19
2018-09-06T07:03:20.091Z,65.10
2018-09-06T07:05:44.324Z,64.66
2018-09-06T07:08:08.689Z,63.59
2018-09-06T07:10:32.596Z,63.30
2018-09-06T07:12:56.436Z,63.41
2018-09-06T07:15:20.344Z,63.31
2018-09-06T07:17:44.277Z,62.88
2018-09-06T07:20:08.167Z,62.59
2018-09-06T07:22:32.060Z,62.72
2018-09-06T07:24:55.960Z,62.85
2018-09-06T07:27:19.823Z,61.94
2018-09-06T07:29:43.712Z,62.55
2018-09-06T07:32:07.618Z,63.07
2018-09-06T07:34:31.503Z,61.63
2018-09-06T07:36:55.396Z,61.30
2018-09-06T07:39:19.432Z,62.48
2018-09-06T07:41:43.345Z,61.70
2018-09-06T07:44:07.511Z,62.04
2018-09-06T07:46:31.725Z,62.54
2018-09-06T07:48:55.618Z,61.64
2018-09-06T07:51:19.516Z,61.16
2018-09-06T07:53:43.409Z,60.05
2018-09-06T07:56:07.801Z,60.61
2018-09-06T07:58:31.671Z,59.70
2018-09-06T08:00:55.536Z,60.84
2018-09-06T08:03:19.435Z,59.81
2018-09-06T08:05:43.507Z,59.61
2018-09-06T08:08:07.430Z,59.47
2018-09-06T08:10:31.292Z,59.76
2018-09-06T08:12:55.188Z,59.87
2018-09-06T08:15:19.044Z,59.81
2018-09-06T08:17:42.916Z,58.55
2018-09-06T08:20:06.884Z,58.58
2018-09-06T08:22:30.751Z,58.42
2018-09-06T08:24:54.638Z,58.44
2018-09-06T08:27:18.560Z,58.53
2018-09-06T08:29:42.435Z,58.30
2018-09-06T08:32:06.312Z,58.46
2018-09-06T08:34:30.209Z,57.19
2018-09-06T08:36:54.259Z,57.09
2018-09-06T08:39:18.065Z,57.26
2018-09-06T08:41:41.950Z,56.56
2018-09-06T08:44:05.866Z,55.82
2018-09-06T08:46:29.733Z,56.12
2018-09-06T08:48:53.678Z,55.76
2018-09-06T08:51:17.565Z,55.29
2018-09-06T08:53:41.437Z,55.62
2018-09-06T08:56:05.378Z,55.83
2018-09-06T08:58:29.473Z,54.78
2018-09-06T09:00:58.589Z,54.67
2018-09-06T09:03:22.559Z,54.43
2018-09-06T09:05:46.802Z,53.60
2018-09-06T09:08:10.692Z,53.95
2018-09-06T09:10:34.585Z,53.84
2018-09-06T09:12:58.493Z,53.57
2018-09-06T09:15:22.394Z,53.03
2018-09-06T09:17:46.387Z,53.00
2018-09-06T09:20:10.257Z,51.70
2018-09-06T09:22:34.168Z,52.29
2018-09-06T09:24:58.044Z,52.61
2018-09-06T09:27:21.918Z,51.06
2018-09-06T09:29:45.848Z,51.10
2018-09-06T09:32:09.728Z,50.84
2018-09-06T09:34:33.642Z,50.44
2018-09-06T09:36:57.536Z,49.85
2018-09-06T09:39:21.430Z,49.69
2018-09-06T09:41:45.338Z,48.87
2018-09-06T09:44:09.279Z,48.76
2018-09-06T09:51:19.156Z,47.00
2018-09-06T09:53:43.050Z,47.25
2018-09-06T09:56:06.938Z,46.67
2018-09-06T09:58:30.849Z,47.99
2018-09-06T10:00:54.868Z,47.80
2018-09-06T10:03:24.029Z,46.13
2018-09-06T10:05:50.161Z,46.63
2018-09-06T10:08:19.264Z,45.64
2018-09-06T10:10:43.474Z,45.88
2018-09-06T10:13:07.390Z,45.45
2018-09-06T10:15:31.244Z,44.37
2018-09-06T10:17:55.219Z,45.00
2018-09-06T10:20:19.070Z,44.15
2018-09-06T10:22:43.171Z,43.58
2018-09-06T10:25:07.058Z,43.64
2018-09-06T10:27:30.942Z,43.85
2018-09-06T10:29:54.951Z,42.77
2018-09-06T10:32:18.854Z,42.36
2018-09-06T10:34:42.738Z,42.39
2018-09-06T10:37:06.641Z,41.84
2018-09-06T10:39:30.658Z,42.64
2018-09-06T10:41:54.511Z,41.75
2018-09-06T10:44:18.391Z,41.28
2018-09-06T10:46:42.328Z,40.74
2018-09-06T10:49:06.256Z,41.45
2018-09-06T10:51:30.234Z,40.13
2018-09-06T10:53:54.201Z,39.26
2018-09-06T10:56:18.088Z,40.20
2018-09-06T10:58:41.967Z,39.49
2018-09-06T11:01:11.262Z,39.84
2018-09-06T11:03:35.160Z,38.35
2018-09-06T11:05:59.105Z,38.17
2018-09-06T11:08:23.064Z,38.42
2018-09-06T11:10:46.917Z,37.69
2018-09-06T11:13:10.822Z,39.03
2018-09-06T11:15:34.703Z,37.80
2018-09-06T11:17:58.636Z,38.58
2018-09-06T11:20:22.590Z,37.67
2018-09-06T11:22:46.530Z,37.89
2018-09-06T11:25:10.383Z,37.18
2018-09-06T11:27:34.344Z,36.59
2018-09-06T11:29:58.171Z,36.26
2018-09-06T11:32:22.132Z,36.74
2018-09-06T11:34:45.982Z,36.59
2018-09-06T11:37:09.853Z,35.15
2018-09-06T11:39:33.744Z,36.04
2018-09-06T11:41:57.669Z,36.37
2018-09-06T11:44:21.559Z,35.46
2018-09-06T11:46:45.538Z,35.21
2018-09-06T11:49:09.430Z,35.26
2018-09-06T11:51:33.322Z,34.35
2018-09-06T11:53:58.421Z,34.08
2018-09-06T11:56:22.336Z,33.17
2018-09-06T11:58:46.251Z,32.78
2018-09-06T12:01:10.115Z,32.49
2018-09-06T12:03:34.005Z,33.78
2018-09-06T12:05:57.893Z,31.21
2018-09-06T12:08:21.783Z,32.91
2018-09-06T12:10:45.672Z,33.19
2018-09-06T12:13:09.530Z,33.13
2018-09-06T12:15:33.416Z,31.76
2018-09-06T12:17:57.462Z,31.33
2018-09-06T12:20:21.382Z,31.35
2018-09-06T12:22:45.413Z,32.17
2018-09-06T12:25:09.288Z,31.42
2018-09-06T12:27:33.202Z,30.61
2018-09-06T12:29:57.111Z,31.00
2018-09-06T12:32:21.222Z,31.02
2018-09-06T12:34:45.164Z,30.00
2018-09-06T12:37:14.882Z,29.92
2018-09-06T12:39:38.769Z,29.53
2018-09-06T12:42:02.820Z,29.95
2018-09-06T12:44:26.838Z,31.19
2018-09-06T12:46:50.751Z,30.60
2018-09-06T12:49:14.724Z,30.63
2018-09-06T12:51:38.678Z,31.31
2018-09-06T12:54:02.576Z,30.41
2018-09-06T12:56:26.691Z,32.56
2018-09-06T12:58:50.555Z,30.38
2018-09-06T13:01:14.424Z,31.39
2018-09-06T13:03:38.387Z,32.18
2018-09-06T13:06:02.287Z,31.13
2018-09-06T13:08:26.212Z,31.11
2018-09-06T13:10:50.310Z,30.82
2018-09-06T13:13:14.219Z,30.40
2018-09-06T13:15:38.201Z,29.87
2018-09-06T13:18:02.037Z,29.77
2018-09-06T13:20:25.945Z,29.05
2018-09-06T13:22:49.898Z,29.80
2018-09-06T13:25:13.784Z,28.85
2018-09-06T13:27:37.656Z,30.71
2018-09-06T13:30:01.598Z,30.00
2018-09-06T13:32:25.548Z,30.18
2018-09-06T13:34:49.505Z,31.03
2018-09-06T13:37:13.428Z,30.28
2018-09-06T13:39:37.304Z,31.00
2018-09-06T13:42:01.201Z,30.57
2018-09-06T13:44:25.137Z,31.61
2018-09-06T13:46:49.146Z,30.11
2018-09-06T13:49:13.029Z,31.06
2018-09-06T13:51:36.944Z,30.78
2018-09-06T13:54:00.875Z,29.53
2018-09-06T13:56:24.814Z,30.44
2018-09-06T13:58:48.725Z,31.34
2018-09-06T14:01:12.612Z,30.97
2018-09-06T14:03:36.600Z,29.94
2018-09-06T14:06:00.487Z,29.66
2018-09-06T14:08:24.368Z,30.30
2018-09-06T14:10:48.279Z,29.73
2018-09-06T14:13:12.147Z,30.60
2018-09-06T14:15:36.161Z,29.65
2018-09-06T14:18:00.030Z,30.50
2018-09-06T14:20:23.967Z,30.99
2018-09-06T14:22:47.920Z,30.88
2018-09-06T14:25:11.805Z,30.73
2018-09-06T14:27:35.699Z,30.17
2018-09-06T14:29:59.606Z,31.41
2018-09-06T14:32:23.581Z,30.25
2018-09-06T14:34:47.423Z,30.97
2018-09-06T14:37:11.335Z,32.11
2018-09-06T14:39:35.256Z,30.17
2018-09-06T14:41:59.155Z,31.99
2018-09-06T14:44:23.157Z,30.79
2018-09-06T14:46:47.044Z,31.88
2018-09-06T14:49:10.906Z,31.05
2018-09-06T14:51:34.802Z,30.45
2018-09-06T14:53:58.799Z,31.18
2018-09-06T14:56:22.753Z,30.65
2018-09-06T14:58:46.620Z,31.00
2018-09-06T15:01:10.560Z,30.92
2018-09-06T15:03:34.557Z,31.26
2018-09-06T15:05:58.458Z,30.24
2018-09-06T15:08:22.398Z,31.52
2018-09-06T15:10:46.277Z,30.51
2018-09-06T15:13:10.172Z,31.41
2018-09-06T15:15:34.163Z,30.57
2018-09-06T15:17:58.044Z,31.91
2018-09-06T15:20:21.937Z,30.46
2018-09-06T15:22:45.845Z,30.96
2018-09-06T15:25:09.723Z,30.96
2018-09-06T15:27:33.725Z,31.98
2018-09-06T15:29:57.597Z,32.20
2018-09-06T15:32:21.549Z,30.94
2018-09-06T15:34:45.538Z,32.28
2018-09-06T15:37:09.397Z,32.00
2018-09-06T15:39:33.274Z,32.09
2018-09-06T15:41:57.502Z,31.31
2018-09-06T15:44:21.393Z,32.21
2018-09-06T15:46:45.316Z,32.19
2018-09-06T15:49:09.234Z,32.19
2018-09-06T15:51:33.187Z,31.91
2018-09-06T15:53:57.163Z,32.02
2018-09-06T15:56:21.037Z,31.54
2018-09-06T15:58:44.923Z,31.82
2018-09-06T16:01:08.829Z,31.90
2018-09-06T16:03:36.448Z,32.91
2018-09-06T16:06:00.404Z,31.51
2018-09-06T16:08:24.596Z,32.02
2018-09-06T16:10:48.596Z,32.79
2018-09-06T16:13:12.475Z,33.00
2018-09-06T16:15:36.393Z,32.42
2018-09-06T16:18:00.312Z,32.99
2018-09-06T16:20:24.248Z,32.07
2018-09-06T16:22:48.244Z,33.22
2018-09-06T16:25:12.172Z,33.43
2018-09-06T16:27:36.052Z,32.84
2018-09-06T16:29:59.964Z,33.34
2018-09-06T16:32:23.939Z,33.39
2018-09-06T16:34:47.914Z,32.61
2018-09-06T16:37:11.901Z,33.36
2018-09-06T16:39:35.833Z,32.87
2018-09-06T16:41:59.749Z,33.31
2018-09-06T16:44:23.722Z,32.59
2018-09-06T16:46:47.691Z,32.89
2018-09-06T16:49:11.579Z,33.71
2018-09-06T16:51:35.488Z,32.77
2018-09-06T16:53:59.624Z,32.99
2018-09-06T16:56:23.570Z,33.21
2018-09-06T16:58:48.099Z,33.81
2018-09-06T17:01:12.186Z,33.61
2018-09-06T17:03:36.020Z,33.35
2018-09-06T17:05:59.944Z,33.45
2018-09-06T17:08:23.924Z,34.19
2018-09-06T17:10:47.880Z,34.55
2018-09-06T17:13:11.893Z,34.00
2018-09-06T17:15:35.855Z,35.96
2018-09-06T17:17:59.825Z,36.06
2018-09-06T17:20:23.923Z,38.11
2018-09-06T17:22:47.835Z,39.96
2018-09-06T17:25:11.840Z,45.01
2018-09-06T17:27:35.824Z,44.88
2018-09-06T17:29:59.807Z,47.48
2018-09-06T17:32:23.850Z,49.37
2018-09-06T17:34:47.775Z,50.85
2018-09-06T17:37:11.741Z,50.56
2018-09-06T17:39:35.722Z,50.89
2018-09-06T17:41:59.695Z,52.51
2018-09-06T17:44:23.789Z,51.04
2018-09-06T17:46:47.740Z,51.36
2018-09-06T17:49:11.714Z,53.46
2018-09-06T17:51:35.668Z,52.00
2018-09-06T17:53:59.569Z,50.23
2018-09-06T17:56:23.514Z,50.38
2018-09-06T17:58:47.461Z,51.24
2018-09-06T18:01:18.555Z,51.35
2018-09-06T18:03:42.613Z,52.09
2018-09-06T18:06:06.560Z,51.67
2018-09-06T18:08:30.482Z,55.65
2018-09-06T18:10:54.545Z,53.35
2018-09-06T18:13:18.501Z,54.39
2018-09-06T18:15:42.511Z,53.99
2018-09-06T18:18:06.504Z,55.43
2018-09-06T18:20:30.444Z,56.12
2018-09-06T18:22:54.522Z,56.68
2018-09-06T18:25:18.492Z,57.76
2018-09-06T18:27:42.395Z,57.38
2018-09-06T18:30:06.338Z,57.79
2018-09-06T18:32:30.288Z,58.36
2018-09-06T18:34:54.329Z,57.98
2018-09-06T18:37:18.269Z,58.60
2018-09-06T18:39:42.313Z,57.34
2018-09-06T18:42:06.297Z,57.42
2018-09-06T18:44:30.301Z,57.74
2018-09-06T18:46:54.609Z,58.01
2018-09-06T18:49:19.552Z,58.34
2018-09-06T18:51:43.511Z,57.77
2018-09-06T18:54:07.557Z,58.61
2018-09-06T18:56:31.513Z,64.54
2018-09-06T18:58:55.494Z,62.93
2018-09-06T19:01:19.475Z,61.54
2018-09-06T19:03:43.425Z,61.61
2018-09-06T19:06:07.739Z,61.67
2018-09-06T19:08:31.683Z,61.85
2018-09-06T19:10:55.612Z,62.76
2018-09-06T19:13:19.624Z,64.85
2018-09-06T19:15:43.518Z,66.79
2018-09-06T19:18:07.540Z,68.69
2018-09-06T19:20:31.478Z,67.92
2018-09-06T19:22:55.443Z,67.93
2018-09-06T19:25:19.454Z,70.27
2018-09-06T19:27:43.424Z,66.43
2018-09-06T19:30:07.369Z,68.49
2018-09-06T19:32:31.325Z,68.33
2018-09-06T19:34:55.264Z,68.82
2018-09-06T19:37:19.267Z,67.34
2018-09-06T19:39:43.294Z,69.62
2018-09-06T19:42:07.260Z,67.45
2018-09-06T19:44:31.238Z,68.89
2018-09-06T19:46:55.153Z,70.33
2018-09-06T19:49:19.183Z,70.90
2018-09-06T19:51:43.161Z,71.66
2018-09-06T19:54:07.216Z,69.68
2018-09-06T19:56:31.247Z,67.80
2018-09-06T19:58:55.167Z,67.75
2018-09-06T20:01:19.205Z,66.44
2018-09-06T20:03:43.148Z,67.55
2018-09-06T20:06:07.053Z,66.76
2018-09-06T20:08:31.096Z,65.88
2018-09-06T20:10:54.977Z,66.00
2018-09-06T20:13:19.015Z,66.06
2018-09-06T20:15:43.211Z,65.92
2018-09-06T20:18:07.109Z,65.45
2018-09-06T20:20:31.084Z,64.95
2018-09-06T20:22:54.959Z,65.34
2018-09-06T20:25:18.890Z,65.07
2018-09-06T20:27:42.838Z,65.15
2018-09-06T20:30:06.868Z,69.07
2018-09-06T20:32:30.817Z,69.35
2018-09-06T20:34:54.744Z,66.52
2018-09-06T20:37:18.741Z,65.97
2018-09-06T20:39:42.696Z,65.70
2018-09-06T20:42:06.629Z,67.45
2018-09-06T20:44:30.562Z,66.82
2018-09-06T20:46:54.539Z,66.19
2018-09-06T20:49:18.455Z,65.53
2018-09-06T20:51:42.404Z,65.25
2018-09-06T20:54:06.314Z,64.68
2018-09-06T20:56:30.261Z,64.88
2018-09-06T20:58:54.230Z,65.47
2018-09-06T21:01:18.116Z,65.32
2018-09-06T21:03:41.992Z,66.78
2018-09-06T21:06:05.930Z,66.63
2018-09-06T21:08:29.871Z,66.97
2018-09-06T21:10:53.804Z,66.74
2018-09-06T21:13:17.702Z,66.63
2018-09-06T21:15:41.591Z,65.54
2018-09-06T21:18:05.492Z,65.03
2018-09-06T21:20:29.376Z,64.90
2018-09-06T21:22:53.284Z,65.21
2018-09-06T21:25:17.154Z,65.45
2018-09-06T21:27:41.124Z,65.68
2018-09-06T21:30:05.118Z,64.97
2018-09-06T21:32:28.987Z,65.45
2018-09-06T21:34:53.782Z,65.59
2018-09-06T21:37:17.750Z,65.09
2018-09-06T21:39:41.688Z,65.69
2018-09-06T21:42:05.596Z,65.02
2018-09-06T21:44:29.591Z,65.33
2018-09-06T21:46:53.561Z,64.94
2018-09-06T21:49:17.430Z,66.10
2018-09-06T21:51:41.335Z,65.37
2018-09-06T21:54:05.278Z,65.77
2018-09-06T21:56:29.255Z,66.02
2018-09-06T21:58:53.119Z,66.52
2018-09-06T22:01:17.167Z,65.70
2018-09-06T22:03:46.276Z,65.47
2018-09-06T22:06:10.203Z,65.92
2018-09-06T22:08:34.076Z,65.71
2018-09-06T22:10:58.003Z,66.57
2018-09-06T22:13:21.950Z,67.85
2018-09-06T22:15:45.836Z,66.84
2018-09-06T22:18:10.594Z,66.32
2018-09-06T22:20:34.482Z,66.22
2018-09-06T22:22:59.384Z,66.15
2018-09-06T22:25:23.343Z,66.20
2018-09-06T22:27:47.217Z,65.79
2018-09-06T22:30:11.107Z,66.20
2018-09-06T22:32:35.004Z,66.49
2018-09-06T22:34:58.940Z,66.32
2018-09-06T22:37:22.892Z,65.77
2018-09-06T22:39:46.775Z,66.00
2018-09-06T22:42:10.645Z,66.83
2018-09-06T22:44:34.582Z,66.30
2018-09-06T22:46:58.501Z,66.79
2018-09-06T22:49:22.436Z,65.56
2018-09-06T22:51:46.309Z,65.28
2018-09-06T22:54:10.232Z,66.14
2018-09-06T22:56:34.109Z,66.74
2018-09-06T22:58:58.008Z,66.51
2018-09-06T23:01:21.897Z,65.89
2018-09-06T23:03:49.960Z,68.77
2018-09-06T23:06:13.880Z,68.61
2018-09-06T23:08:37.743Z,68.49
2018-09-06T23:11:01.775Z,67.71
2018-09-06T23:13:25.666Z,67.91
2018-09-06T23:15:49.533Z,67.19
2018-09-06T23:18:13.434Z,66.46
2018-09-06T23:20:37.315Z,66.54
2018-09-06T23:23:01.243Z,66.82
2018-09-06T23:25:25.139Z,68.44
2018-09-06T23:27:49.041Z,68.37
2018-09-06T23:30:12.953Z,67.43
2018-09-06T23:32:36.822Z,67.45
2018-09-06T23:35:00.790Z,66.89
2018-09-06T23:37:24.643Z,67.14
2018-09-06T23:39:48.526Z,67.10
2018-09-06T23:42:12.432Z,67.05
2018-09-06T23:44:36.338Z,66.83
2018-09-06T23:47:00.591Z,68.11
2018-09-06T23:49:24.485Z,71.06
2018-09-06T23:51:48.375Z,70.96
2018-09-06T23:54:12.300Z,68.82
2018-09-06T23:56:36.197Z,69.11
2018-09-06T23:59:00.075Z,68.02
